Time;durP1;ratioP1;P1;durP2;ratioP2;P2;SDS_P1;SDS_P2;PMS_P1;PMS_P2;Temp;Humidity;BMP_temperature;BMP_pressure;BME280_temperature;BME280_humidity;BME280_pressure;Samples;Min_cycle;Max_cycle;Signal;HPM_P1;HPM_P2
2024/02/07 00:02:18;;;;;;;12.87;4.90;;;10.80;1.00;;;;;;5066411;28;20218;-82
2024/02/07 00:04:45;;;;;;;11.30;5.10;;;10.70;78.90;;;;;;5054099;28;20658;-80
2024/02/07 00:07:12;;;;;;;12.53;4.73;;;10.60;1.00;;;;;;5049804;28;21458;-81
2024/02/07 00:09:38;;;;;;;10.70;4.17;;;10.60;1.00;;;;;;5064922;28;20554;-83
2024/02/07 00:12:05;;;;;;;14.17;5.57;;;10.60;99.90;;;;;;5056115;28;20262;-82
2024/02/07 00:14:32;;;;;;;11.23;4.90;;;10.60;99.90;;;;;;5054073;28;20291;-82
2024/02/07 00:17:00;;;;;;;11.70;5.37;;;10.50;1.00;;;;;;5044959;28;20760;-81
2024/02/07 00:19:27;;;;;;;9.37;4.77;;;10.60;99.90;;;;;;5055384;28;20202;-82
2024/02/07 00:21:54;;;;;;;15.50;4.60;;;10.60;99.90;;;;;;5055019;28;20227;-79
2024/02/07 00:24:21;;;;;;;11.47;4.90;;;10.50;1.00;;;;;;5052840;28;20209;-82
2024/02/07 00:26:48;;;;;;;13.30;5.00;;;10.50;99.90;;;;;;5053651;28;20249;-81
2024/02/07 00:29:14;;;;;;;11.43;4.57;;;10.50;1.00;;;;;;5053232;28;20242;-80
2024/02/07 00:31:41;;;;;;;11.90;4.63;;;10.50;99.90;;;;;;5054209;28;20283;-82
2024/02/07 00:34:10;;;;;;;8.30;3.90;;;10.50;99.90;;;;;;5054976;28;20681;-81
2024/02/07 00:36:36;;;;;;;14.80;4.17;;;10.50;99.90;;;;;;5053737;28;20203;-82
2024/02/07 00:39:03;;;;;;;14.90;5.03;;;10.40;1.00;;;;;;5054188;28;20195;-82
2024/02/07 00:41:30;;;;;;;13.83;4.70;;;10.40;19.70;;;;;;5051859;28;20242;-81
2024/02/07 00:43:57;;;;;;;9.80;5.03;;;10.40;1.00;;;;;;5058512;28;20234;-82
2024/02/07 00:46:24;;;;;;;10.97;4.73;;;10.40;1.00;;;;;;5054595;28;20212;-80
2024/02/07 00:48:51;;;;;;;3.87;1.97;;;10.30;1.00;;;;;;5053593;28;20199;-80
2024/02/07 00:51:19;;;;;;;1.50;1.40;;;9.60;1.00;;;;;;5054792;28;20196;-80
2024/02/07 00:53:46;;;;;;;1.27;0.83;;;9.00;99.90;;;;;;5058053;28;20675;-79
2024/02/07 00:56:12;;;;;;;1.70;1.03;;;8.70;99.90;;;;;;5058917;28;20217;-81
2024/02/07 00:58:40;;;;;;;4.57;1.10;;;8.60;99.90;;;;;;5054013;28;20234;-80
2024/02/07 01:01:07;;;;;;;3.23;1.10;;;8.50;99.90;;;;;;5052106;28;20283;-80
2024/02/07 01:03:33;;;;;;;1.07;0.97;;;8.30;99.90;;;;;;5059929;28;20330;-78
2024/02/07 01:06:00;;;;;;;1.03;1.00;;;8.10;99.90;;;;;;5058090;28;20198;-79
2024/02/07 01:08:28;;;;;;;1.27;0.50;;;8.00;99.90;;;;;;5059487;28;20244;-78
2024/02/07 01:10:55;;;;;;;0.37;0.37;;;7.90;99.90;;;;;;5050128;28;20213;-82
2024/02/07 01:13:22;;;;;;;0.90;0.50;;;7.70;99.90;;;;;;5052726;28;20564;-80
2024/02/07 01:15:49;;;;;;;0.60;0.60;;;7.60;99.90;;;;;;5046956;28;20574;-80
2024/02/07 01:18:16;;;;;;;1.07;0.87;;;7.20;99.90;;;;;;5056370;28;20305;-79
2024/02/07 01:20:42;;;;;;;0.73;0.73;;;7.10;99.90;;;;;;5048460;28;20200;-80
2024/02/07 01:23:10;;;;;;;1.97;0.93;;;7.10;99.90;;;;;;5059917;28;20227;-80
2024/02/07 01:25:38;;;;;;;1.53;1.10;;;6.90;99.90;;;;;;5049998;28;20199;-80
2024/02/07 01:28:05;;;;;;;2.53;0.63;;;6.70;99.90;;;;;;5056867;28;20225;-79
2024/02/07 01:30:32;;;;;;;1.63;0.40;;;6.70;99.90;;;;;;5048531;28;20325;-79
2024/02/07 01:32:59;;;;;;;1.23;0.53;;;6.60;99.90;;;;;;5052617;28;20195;-79
2024/02/07 01:35:27;;;;;;;2.00;0.43;;;6.50;99.90;;;;;;5050489;28;20195;-79
2024/02/07 01:37:53;;;;;;;2.30;0.67;;;6.20;99.90;;;;;;5048983;28;20227;-81
2024/02/07 01:40:23;;;;;;;1.43;0.50;;;6.10;99.90;;;;;;5056339;28;20274;-78
2024/02/07 01:42:51;;;;;;;2.30;0.67;;;6.00;99.90;;;;;;5051666;28;20222;-81
2024/02/07 01:45:23;;;;;;;2.27;0.60;;;6.00;99.90;;;;;;5049509;28;20216;-80
2024/02/07 01:47:51;;;;;;;4.23;0.80;;;5.80;99.90;;;;;;5051983;28;20754;-81
2024/02/07 01:50:19;;;;;;;2.83;0.63;;;5.70;99.90;;;;;;5048659;28;20207;-81
2024/02/07 01:52:46;;;;;;;3.57;0.60;;;5.70;99.90;;;;;;5060021;28;20650;-81
2024/02/07 01:55:15;;;;;;;1.80;0.63;;;5.70;99.90;;;;;;5058169;28;20198;-81
2024/02/07 01:57:43;;;;;;;3.23;0.50;;;5.60;99.90;;;;;;5059187;28;20589;-81
2024/02/07 02:00:12;;;;;;;1.13;0.50;;;5.60;99.90;;;;;;5050325;28;20575;-80
2024/02/07 02:02:39;;;;;;;1.37;0.70;;;5.50;99.90;;;;;;5058555;28;20219;-80
2024/02/07 02:05:06;;;;;;;2.57;0.70;;;5.50;99.90;;;;;;5055273;28;20317;-82
2024/02/07 02:07:34;;;;;;;3.80;1.03;;;5.70;99.90;;;;;;5058708;28;21012;-81
2024/02/07 02:10:01;;;;;;;3.43;0.70;;;5.60;99.90;;;;;;5056755;28;20205;-82
2024/02/07 02:12:29;;;;;;;3.77;0.50;;;5.50;99.90;;;;;;5057226;28;20578;-82
2024/02/07 02:14:56;;;;;;;2.33;0.60;;;5.60;99.90;;;;;;5054415;28;20199;-82
2024/02/07 02:17:24;;;;;;;3.60;0.40;;;5.60;99.90;;;;;;5049475;28;20227;-81
2024/02/07 02:19:51;;;;;;;3.83;0.60;;;5.60;99.90;;;;;;5042396;28;20521;-81
2024/02/07 02:22:34;;;;;;;4.60;1.20;;;5.40;99.90;;;;;;5048473;28;20219;-81
2024/02/07 02:25:19;;;;;;;2.77;0.70;;;5.40;99.90;;;;;;5050235;28;20213;-81
2024/02/07 02:27:55;;;;;;;4.20;1.13;;;5.50;99.90;;;;;;5044372;28;20568;-82
2024/02/07 02:30:33;;;;;;;4.90;1.70;;;5.50;99.90;;;;;;5050071;28;20202;-83
2024/02/07 02:33:03;;;;;;;3.23;0.50;;;5.40;99.90;;;;;;5050578;28;20221;-81
2024/02/07 02:35:32;;;;;;;2.10;0.70;;;5.40;99.90;;;;;;5048138;28;20657;-80
2024/02/07 02:37:58;;;;;;;1.73;0.60;;;5.30;99.90;;;;;;5046557;28;20284;-82
2024/02/07 02:40:25;;;;;;;3.77;0.60;;;5.40;99.90;;;;;;5054097;28;20215;-81
2024/02/07 02:42:52;;;;;;;3.13;0.87;;;5.40;99.90;;;;;;5049693;28;20219;-82
2024/02/07 02:45:19;;;;;;;1.30;0.57;;;5.40;99.90;;;;;;5054427;28;20257;-80
2024/02/07 02:47:48;;;;;;;5.07;0.77;;;5.40;99.90;;;;;;5053740;28;21718;-82
2024/02/07 02:50:15;;;;;;;5.03;0.87;;;5.40;99.90;;;;;;5059800;28;20226;-81
2024/02/07 02:52:42;;;;;;;2.30;0.70;;;5.50;99.90;;;;;;5058051;28;20206;-82
2024/02/07 02:55:11;;;;;;;2.50;0.60;;;5.40;99.90;;;;;;5057467;28;20210;-82
2024/02/07 02:57:39;;;;;;;2.77;0.57;;;5.60;99.90;;;;;;5060540;28;20227;-82
2024/02/07 03:00:07;;;;;;;4.47;0.40;;;5.30;99.90;;;;;;5053990;28;20256;-81
2024/02/07 03:02:34;;;;;;;1.90;0.70;;;5.20;99.90;;;;;;5055102;28;20234;-81
2024/02/07 03:05:03;;;;;;;2.47;0.80;;;5.10;99.90;;;;;;5054784;28;20211;-82
2024/02/07 03:07:54;;;;;;;0.63;0.60;;;5.30;99.90;;;;;;5042080;28;20231;-81
2024/02/07 03:10:23;;;;;;;1.57;0.73;;;5.70;99.90;;;;;;5049542;28;20198;-81
2024/02/07 03:12:50;;;;;;;1.53;0.50;;;5.30;99.90;;;;;;5049246;28;20200;-80
2024/02/07 03:15:18;;;;;;;1.87;0.70;;;5.30;99.90;;;;;;5046717;28;20572;-81
2024/02/07 03:17:45;;;;;;;1.97;0.87;;;5.80;99.90;;;;;;5049225;28;20236;-81
2024/02/07 03:20:14;;;;;;;2.50;0.63;;;5.30;99.90;;;;;;5052125;28;20688;-81
2024/02/07 03:22:41;;;;;;;7.50;1.00;;;5.20;99.90;;;;;;5051954;28;20228;-82
2024/02/07 03:25:16;;;;;;;1.10;0.63;;;5.10;99.90;;;;;;5062437;28;20199;-81
2024/02/07 03:27:44;;;;;;;1.13;0.60;;;5.00;99.90;;;;;;5052718;28;20313;-81
2024/02/07 03:30:11;;;;;;;2.37;0.50;;;4.90;99.90;;;;;;5053755;28;20642;-81
2024/02/07 03:32:38;;;;;;;2.47;0.70;;;4.80;99.90;;;;;;5051366;28;20230;-81
2024/02/07 03:35:06;;;;;;;3.13;0.63;;;4.70;99.90;;;;;;5053795;28;20195;-82
2024/02/07 03:37:34;;;;;;;2.00;0.30;;;4.60;12.00;;;;;;5054385;28;20234;-80
2024/02/07 03:40:01;;;;;;;3.53;0.60;;;4.60;99.90;;;;;;5046901;28;20203;-82
2024/02/07 03:42:28;;;;;;;3.33;0.70;;;4.50;99.90;;;;;;5059026;28;20415;-81
2024/02/07 03:45:00;;;;;;;1.20;0.60;;;4.50;99.90;;;;;;5053766;28;20196;-81
2024/02/07 03:47:26;;;;;;;1.30;0.87;;;4.50;99.90;;;;;;5054553;28;20233;-81
2024/02/07 03:49:53;;;;;;;3.07;0.73;;;4.50;99.90;;;;;;5054126;28;20771;-83
2024/02/07 03:52:20;;;;;;;4.90;0.57;;;4.50;99.90;;;;;;5062066;28;20222;-80
2024/02/07 03:54:50;;;;;;;4.83;0.43;;;4.30;96.90;;;;;;5065235;28;20213;-80
2024/02/07 03:57:19;;;;;;;1.83;0.70;;;4.20;99.90;;;;;;5064051;28;20233;-82
2024/02/07 03:59:46;;;;;;;3.93;0.47;;;4.20;99.90;;;;;;5062818;28;20297;-82
2024/02/07 04:02:21;;;;;;;1.60;0.47;;;4.40;99.90;;;;;;5062400;28;20202;-81
2024/02/07 04:04:49;;;;;;;2.33;1.37;;;4.40;99.90;;;;;;5058697;28;20736;-82
2024/02/07 04:07:16;;;;;;;2.83;0.50;;;4.20;99.90;;;;;;5066976;28;20613;-82
2024/02/07 04:09:43;;;;;;;1.13;0.70;;;4.20;99.90;;;;;;5051751;28;20268;-80
2024/02/07 05:17:16;;;;;;;4.63;0.90;;;4.10;99.90;;;;;;5049416;28;20224;-83
2024/02/07 05:19:42;;;;;;;4.17;0.70;;;4.10;99.90;;;;;;5053708;28;20567;-82
2024/02/07 05:22:10;;;;;;;2.67;0.63;;;4.10;99.90;;;;;;5050152;28;20592;-83
2024/02/07 05:24:38;;;;;;;2.83;0.73;;;4.10;99.90;;;;;;5056385;28;20310;-81
2024/02/07 05:27:07;;;;;;;6.83;0.97;;;4.00;99.90;;;;;;5047190;28;20225;-81
2024/02/07 05:29:34;;;;;;;4.80;0.70;;;4.00;99.90;;;;;;5047396;28;20203;-83
2024/02/07 05:32:01;;;;;;;1.23;0.63;;;3.90;99.90;;;;;;5042201;28;20196;-84
2024/02/07 05:34:29;;;;;;;1.23;0.70;;;3.90;99.90;;;;;;5048899;28;20206;-82
2024/02/07 05:36:55;;;;;;;1.43;0.60;;;3.90;99.90;;;;;;5049473;28;20405;-83
2024/02/07 05:39:23;;;;;;;5.07;0.90;;;3.80;99.90;;;;;;5045524;28;20218;-83
2024/02/07 05:41:50;;;;;;;3.27;0.63;;;3.80;99.90;;;;;;5045321;28;20253;-83
2024/02/07 05:44:17;;;;;;;4.50;0.80;;;3.80;99.90;;;;;;5046493;28;20218;-83
2024/02/07 05:46:43;;;;;;;1.83;0.83;;;3.80;99.90;;;;;;5046022;28;20765;-84
2024/02/07 05:49:13;;;;;;;2.50;0.50;;;3.80;99.90;;;;;;5052072;28;20203;-83
2024/02/07 05:51:41;;;;;;;3.00;0.50;;;3.90;99.90;;;;;;5049353;28;20200;-81
2024/02/07 05:54:08;;;;;;;2.90;0.63;;;3.80;99.90;;;;;;5050015;28;20196;-85
2024/02/07 05:56:35;;;;;;;1.73;0.90;;;3.80;99.90;;;;;;5054008;28;20206;-84
2024/02/07 05:59:02;;;;;;;2.40;0.77;;;3.80;99.90;;;;;;5052205;28;20569;-83
2024/02/07 06:01:29;;;;;;;1.20;1.10;;;3.70;99.90;;;;;;5062008;28;20210;-85
2024/02/07 06:03:56;;;;;;;2.83;0.93;;;3.80;99.90;;;;;;5051336;28;20226;-84
2024/02/07 06:06:24;;;;;;;4.60;1.30;;;3.80;99.90;;;;;;5046649;28;20203;-82
2024/02/07 06:08:52;;;;;;;3.53;0.80;;;3.70;99.90;;;;;;5045653;28;20226;-85
2024/02/07 06:11:21;;;;;;;2.30;1.13;;;3.60;99.90;;;;;;5040540;28;20199;-83
2024/02/07 06:13:48;;;;;;;2.07;0.53;;;3.60;99.90;;;;;;5041303;28;20654;-83
2024/02/07 06:16:14;;;;;;;0.47;0.40;;;3.50;99.90;;;;;;5041813;28;20198;-82
2024/02/07 06:18:41;;;;;;;4.10;0.90;;;3.40;99.90;;;;;;5039835;28;20314;-82
2024/02/07 06:21:08;;;;;;;1.37;0.87;;;3.50;99.90;;;;;;5039720;28;20203;-83
2024/02/07 06:23:35;;;;;;;4.20;0.80;;;3.40;99.90;;;;;;5038993;28;20220;-83
2024/02/07 06:26:04;;;;;;;0.70;0.70;;;3.40;99.90;;;;;;5049438;28;20199;-83
2024/02/07 06:28:30;;;;;;;1.37;0.43;;;3.50;99.90;;;;;;5048430;28;20218;-83
2024/02/07 06:30:57;;;;;;;0.33;0.30;;;3.50;99.90;;;;;;5043402;28;20202;-85
2024/02/07 06:33:24;;;;;;;1.50;0.43;;;3.40;99.90;;;;;;5045884;28;20209;-83
2024/02/07 06:35:51;;;;;;;1.20;0.53;;;3.30;99.90;;;;;;5041990;28;20662;-84
2024/02/07 06:38:17;;;;;;;1.47;0.80;;;3.30;99.90;;;;;;5045197;28;20218;-84
2024/02/07 06:40:44;;;;;;;1.33;0.53;;;3.30;99.90;;;;;;5045360;28;20199;-82
2024/02/07 06:43:13;;;;;;;0.50;0.50;;;3.30;99.90;;;;;;5055366;28;20306;-83
2024/02/07 06:45:40;;;;;;;1.07;0.40;;;3.40;99.90;;;;;;5042735;28;20206;-84
2024/02/07 06:48:07;;;;;;;1.73;0.70;;;3.40;99.90;;;;;;5052810;28;20238;-83
2024/02/07 06:50:34;;;;;;;0.77;0.50;;;3.30;99.90;;;;;;5044616;28;20213;-84
2024/02/07 06:53:01;;;;;;;1.13;0.70;;;3.30;99.90;;;;;;5050138;28;20206;-84
2024/02/07 06:55:28;;;;;;;2.30;0.50;;;3.70;99.90;;;;;;5052448;28;20293;-83
2024/02/07 06:57:54;;;;;;;0.70;0.70;;;3.40;99.90;;;;;;5056794;28;20285;-84
2024/02/07 07:00:23;;;;;;;1.47;0.80;;;3.40;99.90;;;;;;5053710;28;20285;-83
2024/02/07 07:02:50;;;;;;;0.77;0.77;;;3.40;99.90;;;;;;5058636;28;20203;-83
2024/02/07 07:05:16;;;;;;;0.80;0.70;;;3.40;99.90;;;;;;5057979;28;20226;-85
2024/02/07 07:07:43;;;;;;;1.00;0.70;;;3.40;99.90;;;;;;5052128;28;20263;-83
2024/02/07 07:10:10;;;;;;;1.50;0.60;;;3.30;99.90;;;;;;5046116;28;20215;-84
2024/02/07 07:12:37;;;;;;;2.03;1.00;;;3.40;99.90;;;;;;5046667;28;20267;-83
2024/02/07 07:15:05;;;;;;;2.30;1.00;;;3.40;99.90;;;;;;5044904;28;20214;-83
2024/02/07 07:17:33;;;;;;;1.13;0.73;;;3.40;99.90;;;;;;5057498;28;20323;-83
2024/02/07 07:20:00;;;;;;;2.20;1.00;;;3.40;99.90;;;;;;5051262;28;20302;-85
2024/02/07 07:22:27;;;;;;;2.47;0.97;;;3.50;99.90;;;;;;5054517;28;20213;-83
2024/02/07 07:24:54;;;;;;;2.60;1.00;;;3.50;99.90;;;;;;5049312;28;20276;-83
2024/02/07 07:27:21;;;;;;;3.57;1.13;;;3.50;99.90;;;;;;5049971;28;20229;-84
2024/02/07 07:29:47;;;;;;;3.70;1.50;;;3.50;99.90;;;;;;5058263;28;20203;-83
2024/02/07 07:32:14;;;;;;;2.70;1.27;;;3.60;99.90;;;;;;5041713;28;20290;-84
2024/02/07 07:34:43;;;;;;;2.97;1.60;;;3.70;99.90;;;;;;5054552;28;20211;-83
2024/02/07 07:37:09;;;;;;;3.70;1.53;;;3.70;99.90;;;;;;5045067;28;20225;-83
2024/02/07 07:39:36;;;;;;;7.53;1.73;;;3.70;99.90;;;;;;5062865;28;20765;-83
2024/02/07 07:42:03;;;;;;;7.63;1.80;;;3.70;99.90;;;;;;5052338;28;20206;-83
2024/02/07 07:44:30;;;;;;;2.50;1.50;;;3.80;99.90;;;;;;5049210;28;20308;-82
2024/02/07 07:46:57;;;;;;;5.03;1.70;;;3.70;99.90;;;;;;5054333;28;20233;-83
2024/02/07 07:49:24;;;;;;;3.80;1.53;;;3.60;99.90;;;;;;5053295;28;20569;-83
2024/02/07 07:51:52;;;;;;;3.43;2.03;;;3.60;99.90;;;;;;5049089;28;20207;-82
2024/02/07 07:54:19;;;;;;;7.67;1.93;;;3.60;99.90;;;;;;5056395;28;20631;-82
2024/02/07 07:56:45;;;;;;;6.93;1.97;;;3.60;99.90;;;;;;5058048;28;20585;-82
2024/02/07 07:59:13;;;;;;;4.57;1.97;;;3.70;99.90;;;;;;5053321;28;20203;-83
2024/02/07 08:01:40;;;;;;;5.53;2.17;;;3.70;99.90;;;;;;5052271;28;20207;-83
2024/02/07 08:04:07;;;;;;;5.33;2.40;;;3.60;99.90;;;;;;5047649;28;20287;-83
2024/02/07 08:06:33;;;;;;;9.33;2.33;;;3.60;99.90;;;;;;5061551;28;20289;-82
2024/02/07 08:09:02;;;;;;;4.50;2.37;;;3.70;99.90;;;;;;5060245;28;20214;-83
2024/02/07 08:11:28;;;;;;;5.63;2.00;;;3.70;99.90;;;;;;5056296;28;20212;-84
2024/02/07 08:13:55;;;;;;;6.60;2.37;;;3.80;99.90;;;;;;5048775;28;20234;-82
2024/02/07 08:16:22;;;;;;;5.80;2.10;;;3.80;99.90;;;;;;5056687;28;20203;-83
2024/02/07 08:18:50;;;;;;;9.47;2.93;;;4.50;99.90;;;;;;5058124;28;20628;-83
2024/02/07 08:21:16;;;;;;;8.57;3.10;;;3.90;99.90;;;;;;5057168;28;20313;-83
2024/02/07 08:23:43;;;;;;;8.17;2.90;;;3.90;99.90;;;;;;5055019;28;20199;-84
2024/02/07 08:26:11;;;;;;;5.40;2.37;;;4.00;99.90;;;;;;5055744;28;20294;-83
2024/02/07 08:28:38;;;;;;;3.03;2.07;;;4.00;99.90;;;;;;5049764;28;20313;-83
2024/02/07 08:31:05;;;;;;;2.83;2.17;;;4.10;99.90;;;;;;5056431;28;20209;-83
2024/02/07 08:33:32;;;;;;;7.43;2.60;;;4.10;99.90;;;;;;5051730;28;20203;-83
2024/02/07 08:35:58;;;;;;;5.13;3.33;;;4.10;99.90;;;;;;5057178;28;20213;-82
2024/02/07 08:38:25;;;;;;;10.97;2.40;;;4.10;99.90;;;;;;5053393;28;20223;-82
2024/02/07 08:40:54;;;;;;;6.37;2.40;;;4.10;99.90;;;;;;5039825;28;20203;-82
2024/02/07 08:43:22;;;;;;;8.60;2.90;;;4.20;99.90;;;;;;5053265;28;20195;-82
2024/02/07 08:45:49;;;;;;;6.50;3.10;;;4.60;99.90;;;;;;5053662;28;20250;-82
2024/02/07 08:48:16;;;;;;;4.33;2.13;;;4.10;99.90;;;;;;5056931;28;20589;-82
2024/02/07 08:50:43;;;;;;;5.20;2.60;;;4.70;99.90;;;;;;5052304;28;20205;-82
2024/02/07 08:53:11;;;;;;;6.53;2.70;;;4.20;99.90;;;;;;5056029;28;20203;-83
2024/02/07 08:55:38;;;;;;;5.87;2.70;;;4.20;99.90;;;;;;5053160;28;20217;-83
2024/02/07 08:58:05;;;;;;;8.10;2.80;;;4.20;99.90;;;;;;5050020;28;20693;-82
2024/02/07 09:00:33;;;;;;;7.17;2.90;;;4.30;99.90;;;;;;5056888;28;20673;-83
2024/02/07 09:03:00;;;;;;;5.13;2.80;;;4.40;99.90;;;;;;5073302;28;20217;-84
2024/02/07 09:05:27;;;;;;;6.17;2.73;;;4.40;99.90;;;;;;5078281;28;20226;-82
2024/02/07 09:07:54;;;;;;;6.20;2.60;;;4.50;99.90;;;;;;5054411;28;20235;-84
2024/02/07 09:10:23;;;;;;;7.63;3.00;;;4.50;99.90;;;;;;5038104;28;20239;-83
2024/02/07 09:12:49;;;;;;;9.97;3.20;;;4.80;99.90;;;;;;5067845;28;20660;-83
2024/02/07 09:15:16;;;;;;;7.67;2.97;;;4.80;99.90;;;;;;5057366;28;20290;-84
2024/02/07 09:17:44;;;;;;;8.93;2.80;;;4.70;99.90;;;;;;5062669;28;20277;-83
2024/02/07 09:20:13;;;;;;;7.53;2.97;;;5.10;99.90;;;;;;5057820;28;20203;-83
2024/02/07 09:22:40;;;;;;;9.53;3.47;;;4.90;99.90;;;;;;5057239;28;20203;-84
2024/02/07 09:25:07;;;;;;;9.53;3.00;;;4.90;99.90;;;;;;5056997;28;20233;-84
2024/02/07 09:27:34;;;;;;;13.43;3.20;;;5.00;99.90;;;;;;5045137;28;20219;-82
2024/02/07 09:30:01;;;;;;;12.93;2.90;;;5.10;99.90;;;;;;5042921;28;20210;-84
2024/02/07 09:32:28;;;;;;;12.20;2.70;;;5.10;99.90;;;;;;5047590;28;20204;-84
2024/02/07 09:34:56;;;;;;;14.67;4.93;;;5.20;99.90;;;;;;5056934;28;20210;-84
2024/02/07 09:37:23;;;;;;;20.93;6.37;;;5.20;99.90;;;;;;5051885;28;20225;-83
2024/02/07 09:39:50;;;;;;;10.57;2.80;;;5.40;99.90;;;;;;5050840;28;20267;-84
2024/02/07 09:42:19;;;;;;;15.33;2.80;;;5.40;99.90;;;;;;5056625;28;20204;-83
2024/02/07 09:44:50;;;;;;;11.53;2.87;;;5.50;99.90;;;;;;5047472;28;20233;-83
2024/02/07 09:47:19;;;;;;;10.87;2.83;;;5.50;99.90;;;;;;5048994;28;20226;-83
2024/02/07 09:49:47;;;;;;;16.83;2.90;;;5.50;99.90;;;;;;5056628;28;20285;-83
2024/02/07 09:52:17;;;;;;;11.40;2.70;;;5.50;99.90;;;;;;5056858;28;20195;-83
2024/02/07 09:54:46;;;;;;;14.03;2.90;;;5.60;95.60;;;;;;5056674;28;20203;-83
2024/02/07 09:57:13;;;;;;;12.27;2.83;;;5.60;1.00;;;;;;5057959;28;20762;-83
2024/02/07 09:59:40;;;;;;;12.83;2.83;;;5.70;1.00;;;;;;5058868;28;20207;-84
2024/02/07 10:02:10;;;;;;;11.50;2.60;;;5.70;1.00;;;;;;5066302;28;20253;-83
2024/02/07 10:04:44;;;;;;;14.17;2.90;;;5.80;99.90;;;;;;5063645;28;20219;-83
2024/02/07 10:07:13;;;;;;;11.17;2.97;;;5.80;1.00;;;;;;5055451;28;20219;-83
2024/02/07 10:09:43;;;;;;;13.77;3.00;;;5.80;99.90;;;;;;5058029;28;20293;-83
2024/02/07 10:12:12;;;;;;;11.60;3.80;;;5.80;1.00;;;;;;5057357;28;20297;-83
2024/02/07 10:14:40;;;;;;;15.53;3.93;;;6.30;1.00;;;;;;5049853;28;20725;-83
2024/02/07 10:17:07;;;;;;;11.20;2.70;;;5.80;99.90;;;;;;5052076;28;20257;-82
2024/02/07 10:19:34;;;;;;;14.87;2.30;;;6.00;40.60;;;;;;5050947;28;20213;-83
2024/02/07 10:22:01;;;;;;;14.33;3.10;;;6.10;1.00;;;;;;5057581;28;20287;-83
2024/02/07 10:24:32;;;;;;;12.73;3.03;;;6.30;1.00;;;;;;5057598;28;20261;-83
2024/02/07 10:27:00;;;;;;;11.00;2.90;;;6.30;99.90;;;;;;5057158;28;20226;-83
2024/02/07 10:29:27;;;;;;;13.10;2.77;;;6.30;99.90;;;;;;5044058;28;20242;-82
2024/02/07 10:31:54;;;;;;;11.27;2.50;;;6.30;1.00;;;;;;5044384;28;20202;-83
2024/02/07 10:34:21;;;;;;;12.40;2.47;;;6.20;1.00;;;;;;5045848;28;20298;-84
2024/02/07 10:36:56;;;;;;;11.13;2.20;;;6.00;99.90;;;;;;5044629;28;20701;-82
2024/02/07 10:39:23;;;;;;;21.03;2.70;;;6.20;99.90;;;;;;5047175;28;20286;-82
2024/02/07 10:41:50;;;;;;;8.00;2.20;;;6.10;99.90;;;;;;5055681;28;20586;-83
2024/02/07 10:44:18;;;;;;;13.00;2.10;;;6.10;1.00;;;;;;5056366;28;20203;-83
2024/02/07 10:46:45;;;;;;;13.20;3.47;;;6.00;1.00;;;;;;5048802;28;20272;-83
2024/02/07 10:49:12;;;;;;;10.63;2.43;;;6.00;1.00;;;;;;5041783;28;20262;-83
2024/02/07 10:51:41;;;;;;;15.37;2.57;;;6.00;1.00;;;;;;5045385;28;20218;-83
2024/02/07 10:54:09;;;;;;;14.17;3.00;;;6.10;1.00;;;;;;5046257;28;20217;-82
2024/02/07 10:56:37;;;;;;;12.63;2.77;;;6.10;1.00;;;;;;5053120;28;20654;-82
2024/02/07 10:59:04;;;;;;;14.07;3.07;;;6.10;1.00;;;;;;5053790;28;20290;-81
2024/02/07 11:01:33;;;;;;;12.03;3.47;;;6.00;99.90;;;;;;5050841;28;20673;-82
2024/02/07 11:04:01;;;;;;;12.30;3.83;;;6.00;99.90;;;;;;5050476;28;20737;-81
2024/02/07 11:06:28;;;;;;;17.77;3.37;;;6.00;99.90;;;;;;5049691;28;20246;-82
2024/02/07 11:08:56;;;;;;;12.23;2.80;;;6.10;99.90;;;;;;5053647;28;20241;-81
2024/02/07 11:11:25;;;;;;;13.90;3.23;;;6.00;17.10;;;;;;5040563;28;20199;-82
2024/02/07 11:13:53;;;;;;;16.83;3.00;;;6.10;99.90;;;;;;5051020;28;20252;-82
2024/02/07 11:16:20;;;;;;;8.87;2.80;;;6.10;23.00;;;;;;5048285;28;20291;-82
2024/02/07 11:18:48;;;;;;;19.13;4.13;;;6.20;1.00;;;;;;5046980;28;20325;-81
2024/02/07 11:21:20;;;;;;;11.83;2.57;;;6.10;1.00;;;;;;5046072;28;20289;-82
2024/02/07 11:23:49;;;;;;;15.43;2.73;;;6.10;1.00;;;;;;5055959;28;20226;-80
2024/02/07 11:26:17;;;;;;;13.77;2.60;;;6.10;1.00;;;;;;5041387;28;20219;-81
2024/02/07 11:28:45;;;;;;;14.10;2.63;;;6.10;1.00;;;;;;5041828;28;20222;-81
2024/02/07 11:31:12;;;;;;;14.40;3.60;;;6.00;1.00;;;;;;5046376;28;20298;-81
2024/02/07 11:33:43;;;;;;;18.03;2.90;;;6.10;1.00;;;;;;5045189;28;20646;-81
2024/02/07 11:36:17;;;;;;;10.00;2.97;;;6.20;1.00;;;;;;5046166;28;20199;-82
2024/02/07 11:38:48;;;;;;;17.10;3.40;;;6.10;1.00;;;;;;5043072;28;20226;-82
2024/02/07 11:41:19;;;;;;;13.90;3.10;;;6.10;1.00;;;;;;5048891;28;20199;-82
2024/02/07 11:43:47;;;;;;;15.63;2.90;;;6.10;1.00;;;;;;5049083;28;20199;-82
2024/02/07 11:46:16;;;;;;;14.40;3.57;;;6.30;1.00;;;;;;5049151;28;20653;-82
2024/02/07 11:48:43;;;;;;;16.23;2.90;;;6.20;1.00;;;;;;5047679;28;20226;-82
2024/02/07 11:51:11;;;;;;;7.53;2.23;;;6.20;1.00;;;;;;5050637;28;20720;-81
2024/02/07 11:53:42;;;;;;;18.40;3.57;;;6.10;1.00;;;;;;5055346;28;20217;-82
2024/02/07 11:56:11;;;;;;;8.03;2.50;;;6.30;1.00;;;;;;5051582;28;20200;-80
2024/02/07 11:58:38;;;;;;;17.03;2.63;;;6.20;1.00;;;;;;5055478;28;20509;-81
2024/02/07 12:01:08;;;;;;;8.50;2.50;;;6.20;1.00;;;;;;5058633;28;20207;-82
2024/02/07 12:03:36;;;;;;;12.63;2.87;;;6.20;1.00;;;;;;5055925;28;20203;-82
2024/02/07 12:06:04;;;;;;;14.53;3.10;;;6.20;1.00;;;;;;5055753;28;20226;-82
2024/02/07 12:08:31;;;;;;;11.77;2.37;;;6.10;1.00;;;;;;5052383;28;20230;-82
2024/02/07 12:10:59;;;;;;;15.07;2.83;;;6.10;1.00;;;;;;5050523;28;20214;-82
2024/02/07 12:13:26;;;;;;;13.97;3.03;;;6.20;1.00;;;;;;5057231;28;20201;-82
2024/02/07 12:15:57;;;;;;;11.37;1.90;;;6.30;1.00;;;;;;5055105;28;20202;-81
2024/02/07 12:18:25;;;;;;;14.33;3.10;;;6.30;99.90;;;;;;5056512;28;20321;-82
2024/02/07 12:20:52;;;;;;;10.17;2.10;;;6.30;99.90;;;;;;5053551;28;20294;-81
2024/02/07 12:23:19;;;;;;;10.67;2.50;;;6.20;1.00;;;;;;5048879;28;20217;-81
2024/02/07 12:25:56;;;;;;;13.47;3.33;;;6.20;1.00;;;;;;5051033;28;20243;-80
2024/02/07 12:28:25;;;;;;;17.87;3.00;;;6.20;1.00;;;;;;5048871;28;20218;-82
2024/02/07 12:30:54;;;;;;;7.20;1.93;;;6.30;1.00;;;;;;5046055;28;20203;-82
2024/02/07 12:33:20;;;;;;;11.30;2.40;;;6.40;1.00;;;;;;5055736;28;20199;-82
2024/02/07 12:35:56;;;;;;;12.60;2.80;;;6.30;1.00;;;;;;5052404;28;20202;-83
2024/02/07 12:38:23;;;;;;;10.43;3.03;;;6.30;1.00;;;;;;5058324;28;20230;-81
2024/02/07 12:40:51;;;;;;;11.87;2.80;;;6.30;1.00;;;;;;5053434;28;20286;-81
2024/02/07 12:43:18;;;;;;;9.00;2.23;;;6.30;1.00;;;;;;5054185;28;20199;-81
2024/02/07 12:45:50;;;;;;;13.20;3.00;;;6.40;1.00;;;;;;5044230;28;20219;-82
2024/02/07 12:48:17;;;;;;;12.53;3.10;;;6.30;1.00;;;;;;5045912;28;20219;-83
2024/02/07 12:50:44;;;;;;;13.93;2.97;;;6.30;1.00;;;;;;5048995;28;20225;-81
2024/02/07 12:53:11;;;;;;;8.73;2.30;;;6.30;1.00;;;;;;5046826;28;20199;-81
2024/02/07 12:55:38;;;;;;;15.63;3.77;;;6.40;1.00;;;;;;5051914;28;20191;-81
2024/02/07 12:58:05;;;;;;;16.47;4.23;;;6.30;1.00;;;;;;5053850;28;20219;-82
2024/02/07 13:00:32;;;;;;;9.70;2.63;;;6.40;1.00;;;;;;5048222;28;20209;-81
2024/02/07 13:03:00;;;;;;;12.83;2.83;;;6.50;1.00;;;;;;5048398;28;20221;-83
2024/02/07 13:05:27;;;;;;;9.57;3.30;;;6.50;1.00;;;;;;5051885;28;20241;-82
2024/02/07 13:07:54;;;;;;;5.93;2.00;;;6.50;1.00;;;;;;5048502;28;20259;-83
2024/02/07 13:10:20;;;;;;;9.10;2.23;;;6.50;1.00;;;;;;5050310;28;20279;-82
2024/02/07 13:12:47;;;;;;;13.00;2.17;;;6.60;1.00;;;;;;5052739;28;20203;-83
2024/02/07 13:15:18;;;;;;;12.30;2.17;;;6.50;1.00;;;;;;5056446;28;20210;-83
2024/02/07 13:17:46;;;;;;;9.63;1.93;;;6.50;1.00;;;;;;5053179;28;20245;-83
2024/02/07 13:20:15;;;;;;;13.30;2.40;;;6.70;1.00;;;;;;5054881;28;20214;-83
2024/02/07 13:22:42;;;;;;;8.23;2.00;;;7.00;1.00;;;;;;5057692;28;20206;-81
2024/02/07 13:25:10;;;;;;;9.27;2.10;;;6.90;1.00;;;;;;5052453;28;20215;-81
2024/02/07 13:27:37;;;;;;;10.13;2.40;;;7.10;1.00;;;;;;5052706;28;20225;-82
2024/02/07 13:30:05;;;;;;;5.83;1.63;;;7.10;1.00;;;;;;5051015;28;20287;-83
2024/02/07 13:32:32;;;;;;;9.80;2.10;;;6.90;1.00;;;;;;5052592;28;20218;-83
2024/02/07 13:34:58;;;;;;;10.00;2.10;;;6.80;99.90;;;;;;5047494;28;20288;-81
2024/02/07 13:37:27;;;;;;;11.97;2.50;;;6.70;99.90;;;;;;5050468;28;20761;-82
2024/02/07 13:39:54;;;;;;;9.37;2.30;;;6.50;99.90;;;;;;5044539;28;20203;-81
2024/02/07 13:42:21;;;;;;;8.77;2.50;;;6.80;99.90;;;;;;5045497;28;20200;-81
2024/02/07 13:44:48;;;;;;;14.43;3.63;;;6.80;99.90;;;;;;5047200;28;20286;-82
2024/02/07 13:47:15;;;;;;;15.23;2.43;;;6.70;99.90;;;;;;5050894;28;20586;-82
2024/02/07 13:49:42;;;;;;;10.53;2.47;;;6.50;99.90;;;;;;5046468;28;20262;-82
2024/02/07 13:52:09;;;;;;;12.23;3.87;;;6.40;99.90;;;;;;5055251;28;20266;-81
2024/02/07 13:54:37;;;;;;;13.47;2.87;;;6.20;99.90;;;;;;5045685;28;20234;-81
2024/02/07 13:57:05;;;;;;;7.90;2.60;;;6.20;99.90;;;;;;5054439;28;20215;-80
2024/02/07 13:59:31;;;;;;;12.60;2.20;;;6.30;99.90;;;;;;5049691;28;20226;-79
2024/02/07 14:01:59;;;;;;;9.50;2.40;;;6.60;99.90;;;;;;5045857;28;20206;-83
2024/02/07 14:04:26;;;;;;;11.17;2.50;;;6.60;99.90;;;;;;5050732;28;20589;-81